createdAt,value
2022-11-14T00:01:22.575Z,101678.94
2022-11-14T00:03:51.467Z,101680.50
2022-11-14T00:06:19.494Z,101672.53
2022-11-14T00:08:48.977Z,101680.56
2022-11-14T00:11:17.468Z,101668.00
2022-11-14T00:13:46.513Z,101672.72
2022-11-14T00:16:14.583Z,101667.34
2022-11-14T00:18:42.654Z,101667.06
2022-11-14T00:21:10.878Z,101669.72
2022-11-14T00:23:38.904Z,101674.31
2022-11-14T00:26:08.594Z,101671.16
2022-11-14T00:28:36.667Z,101660.22
2022-11-14T00:31:04.818Z,101656.19
2022-11-14T00:33:32.924Z,101652.84
2022-11-14T00:36:00.993Z,101658.72
2022-11-14T00:38:29.400Z,101655.19
2022-11-14T00:40:57.756Z,101655.09
2022-11-14T00:43:27.214Z,101654.94
2022-11-14T00:45:55.256Z,101645.63
2022-11-14T00:48:23.301Z,101645.63
2022-11-14T00:50:51.469Z,101646.94
2022-11-14T00:53:19.550Z,101647.19
2022-11-14T00:55:47.588Z,101637.00
2022-11-14T00:58:15.690Z,101638.88
2022-11-14T01:00:45.278Z,101640.97
2022-11-14T01:03:13.435Z,101632.13
2022-11-14T01:05:45.402Z,101636.88
2022-11-14T01:08:14.726Z,101628.63
2022-11-14T01:10:43.332Z,101635.28
2022-11-14T01:13:12.173Z,101620.88
2022-11-14T01:15:41.227Z,101622.78
2022-11-14T01:18:13.020Z,101621.97
2022-11-14T01:20:41.643Z,101619.88
2022-11-14T01:23:10.799Z,101625.19
2022-11-14T01:25:40.248Z,101637.53
2022-11-14T01:28:11.723Z,101637.09
2022-11-14T01:30:40.038Z,101635.56
2022-11-14T01:33:08.457Z,101630.34
2022-11-14T01:35:39.257Z,101625.63
2022-11-14T01:38:07.752Z,101623.06
2022-11-14T01:40:35.853Z,101622.88
2022-11-14T01:43:26.691Z,101631.16
2022-11-14T01:45:57.906Z,101613.09
2022-11-14T01:48:32.167Z,101619.75
2022-11-14T01:51:05.270Z,101620.56
2022-11-14T01:53:33.753Z,101613.63
2022-11-14T01:56:05.858Z,101610.44
2022-11-14T01:58:37.390Z,101607.22
2022-11-14T02:01:05.808Z,101595.88
2022-11-14T02:03:37.283Z,101607.06
2022-11-14T02:06:08.618Z,101610.78
2022-11-14T02:08:38.092Z,101609.16
2022-11-14T02:11:06.607Z,101605.94
2022-11-14T02:13:34.681Z,101608.31
2022-11-14T02:16:02.943Z,101609.63
2022-11-14T02:18:31.183Z,101605.81
2022-11-14T02:21:00.877Z,101599.31
2022-11-14T02:23:30.803Z,101599.25
2022-11-14T02:25:59.173Z,101605.53
2022-11-14T02:28:28.033Z,101603.28
2022-11-14T02:30:57.010Z,101598.72
2022-11-14T02:33:25.047Z,101604.53
2022-11-14T02:35:53.107Z,101604.19
2022-11-14T02:38:22.630Z,101603.66
2022-11-14T02:40:50.701Z,101596.34
2022-11-14T02:43:18.856Z,101600.34
2022-11-14T02:45:46.965Z,101599.75
2022-11-14T02:48:15.258Z,101606.16
2022-11-14T02:50:43.735Z,101605.72
2022-11-14T02:53:11.906Z,101611.56
2022-11-14T02:55:41.442Z,101601.69
2022-11-14T02:58:09.585Z,101602.50
2022-11-14T03:00:53.342Z,101602.53
2022-11-14T03:03:25.647Z,101597.59
2022-11-14T03:05:54.694Z,101597.41
2022-11-14T03:08:22.758Z,101605.41
2022-11-14T03:10:52.254Z,101601.72
2022-11-14T03:13:20.377Z,101602.25
2022-11-14T03:15:48.675Z,101600.47
2022-11-14T03:18:16.748Z,101603.75
2022-11-14T03:20:44.875Z,101606.84
2022-11-14T03:23:12.935Z,101606.13
2022-11-14T03:25:41.050Z,101604.47
2022-11-14T03:28:10.496Z,101611.09
2022-11-14T03:30:38.584Z,101608.75
2022-11-14T03:33:06.654Z,101616.50
2022-11-14T03:35:34.705Z,101613.50
2022-11-14T03:38:02.824Z,101608.81
2022-11-14T03:40:30.907Z,101610.25
2022-11-14T03:42:59.107Z,101604.31
2022-11-14T03:45:28.625Z,101607.84
2022-11-14T03:47:56.815Z,101605.72
2022-11-14T03:50:24.934Z,101607.53
2022-11-14T03:52:53.086Z,101606.59
2022-11-14T03:55:21.192Z,101613.00
2022-11-14T03:57:49.355Z,101613.22
2022-11-14T04:00:18.385Z,101607.53
2022-11-14T04:02:47.902Z,101612.06
2022-11-14T04:05:16.106Z,101612.06
2022-11-14T04:07:44.218Z,101614.66
2022-11-14T04:10:12.254Z,101606.47
2022-11-14T04:12:40.658Z,101611.81
2022-11-14T04:15:09.625Z,101610.69
2022-11-14T04:17:40.022Z,101608.22
2022-11-14T04:20:10.924Z,101612.16
2022-11-14T04:22:39.051Z,101608.47
2022-11-14T04:25:08.774Z,101610.56
2022-11-14T04:27:36.942Z,101614.34
2022-11-14T04:30:06.150Z,101621.88
2022-11-14T04:32:34.328Z,101615.13
2022-11-14T04:35:02.479Z,101616.38
2022-11-14T04:37:32.161Z,101622.88
2022-11-14T04:40:02.593Z,101617.97
2022-11-14T04:42:30.629Z,101617.66
2022-11-14T04:44:58.886Z,101622.47
2022-11-14T04:47:26.970Z,101618.25
2022-11-14T04:49:55.052Z,101622.22
2022-11-14T04:52:23.104Z,101626.84
2022-11-14T04:54:52.566Z,101623.88
2022-11-14T04:57:20.758Z,101622.63
2022-11-14T04:59:48.803Z,101624.47
2022-11-14T05:02:16.871Z,101626.34
2022-11-14T05:04:45.900Z,101628.25
2022-11-14T05:07:14.670Z,101631.13
2022-11-14T05:09:42.821Z,101629.28
2022-11-14T05:12:12.241Z,101626.63
2022-11-14T05:14:40.294Z,101630.94
2022-11-14T05:17:08.478Z,101630.13
2022-11-14T05:19:36.628Z,101633.56
2022-11-14T05:22:04.687Z,101628.53
2022-11-14T05:24:32.887Z,101629.25
2022-11-14T05:27:01.084Z,101636.06
2022-11-14T05:29:30.751Z,101625.53
2022-11-14T05:31:59.244Z,101634.56
2022-11-14T05:34:27.363Z,101636.56
2022-11-14T05:36:55.690Z,101638.66
2022-11-14T05:39:23.811Z,101644.56
2022-11-14T05:41:51.872Z,101641.88
2022-11-14T05:44:19.952Z,101642.50
2022-11-14T05:46:49.507Z,101642.03
2022-11-14T05:49:21.776Z,101649.50
2022-11-14T05:51:50.130Z,101645.25
2022-11-14T05:54:18.239Z,101645.06
2022-11-14T05:56:46.350Z,101644.63
2022-11-14T05:59:14.416Z,101647.16
2022-11-14T06:01:42.944Z,101652.97
2022-11-14T06:04:14.241Z,101653.97
2022-11-14T06:06:42.604Z,101651.00
2022-11-14T06:09:10.870Z,101652.38
2022-11-14T06:11:39.059Z,101652.91
2022-11-14T06:14:10.924Z,101652.16
2022-11-14T06:16:39.366Z,101654.56
2022-11-14T06:19:07.431Z,101658.69
2022-11-14T06:21:37.056Z,101662.66
2022-11-14T06:24:05.563Z,101653.34
2022-11-14T06:26:34.077Z,101658.97
2022-11-14T06:29:02.220Z,101657.44
2022-11-14T06:31:30.470Z,101648.81
2022-11-14T06:33:58.633Z,101656.84
2022-11-14T06:36:27.157Z,101650.72
2022-11-14T06:38:56.734Z,101653.69
2022-11-14T06:41:25.090Z,101651.38
2022-11-14T06:43:54.883Z,101655.94
2022-11-14T06:46:24.297Z,101653.63
2022-11-14T06:48:52.663Z,101648.25
2022-11-14T06:51:20.881Z,101651.28
2022-11-14T06:53:49.148Z,101647.88
2022-11-14T06:56:20.339Z,101643.63
2022-11-14T06:58:50.689Z,101643.13
2022-11-14T07:01:20.401Z,101642.56
2022-11-14T07:03:49.034Z,101636.97
2022-11-14T07:06:18.752Z,101633.78
2022-11-14T07:08:47.085Z,101637.78
2022-11-14T07:11:23.089Z,101636.16
2022-11-14T07:13:53.964Z,101639.94
2022-11-14T07:16:24.956Z,101634.81
2022-11-14T07:18:53.175Z,101642.31
2022-11-14T07:21:21.274Z,101641.25
2022-11-14T07:23:49.491Z,101633.22
2022-11-14T07:26:17.537Z,101641.53
2022-11-14T07:28:51.796Z,101634.84
2022-11-14T07:31:22.531Z,101640.97
2022-11-14T07:33:50.646Z,101641.22
2022-11-14T07:36:19.067Z,101651.69
2022-11-14T07:38:47.275Z,101643.09
2022-11-14T07:41:17.442Z,101640.69
2022-11-14T07:43:45.957Z,101631.84
2022-11-14T07:46:15.754Z,101634.50
2022-11-14T07:48:45.696Z,101632.31
2022-11-14T07:51:17.276Z,101632.81
2022-11-14T07:53:45.884Z,101644.59
2022-11-14T07:56:14.179Z,101638.44
2022-11-14T07:58:43.268Z,101632.47
2022-11-14T08:01:14.037Z,101634.59
2022-11-14T08:03:45.721Z,101640.78
2022-11-14T08:06:17.498Z,101638.66
2022-11-14T08:08:45.582Z,101638.13
2022-11-14T08:11:15.083Z,101642.00
2022-11-14T08:13:51.411Z,101648.25
2022-11-14T08:16:19.521Z,101647.59
2022-11-14T08:18:47.560Z,101646.47
2022-11-14T08:21:17.049Z,101645.00
2022-11-14T08:23:45.929Z,101647.09
2022-11-14T08:26:14.052Z,101642.78
2022-11-14T08:28:42.167Z,101638.34
2022-11-14T08:31:10.391Z,101636.38
2022-11-14T08:33:38.542Z,101632.16
2022-11-14T08:36:09.309Z,101630.25
2022-11-14T08:38:38.763Z,101637.09
2022-11-14T08:41:07.035Z,101636.41
2022-11-14T08:43:35.158Z,101637.78
2022-11-14T08:46:05.438Z,101632.22
2022-11-14T08:48:34.294Z,101621.25
2022-11-14T08:51:06.212Z,101622.25
2022-11-14T08:53:35.876Z,101620.91
2022-11-14T08:56:05.735Z,101613.94
2022-11-14T08:58:34.435Z,101622.81
2022-11-14T09:01:03.563Z,101625.50
2022-11-14T09:03:32.408Z,101627.56
2022-11-14T09:06:01.449Z,101623.66
2022-11-14T09:08:30.465Z,101619.06
2022-11-14T09:11:05.493Z,101613.47
2022-11-14T09:13:36.616Z,101620.50
2022-11-14T09:16:04.820Z,101623.44
2022-11-14T09:18:33.242Z,101611.03
2022-11-14T09:21:03.145Z,101608.56
2022-11-14T09:23:31.906Z,101615.56
2022-11-14T09:26:04.347Z,101612.09
2022-11-14T09:28:32.492Z,101612.09
2022-11-14T09:31:06.994Z,101609.69
2022-11-14T09:33:36.019Z,101608.66
2022-11-14T09:36:06.467Z,101599.53
2022-11-14T09:38:38.450Z,101602.22
2022-11-14T09:41:21.174Z,101604.38
2022-11-14T09:44:17.741Z,101600.72
2022-11-14T09:46:54.681Z,101597.41
2022-11-14T09:49:29.101Z,101597.78
2022-11-14T09:52:03.994Z,101591.66
2022-11-14T09:54:43.683Z,101594.00
2022-11-14T09:57:17.108Z,101585.69
2022-11-14T09:59:45.426Z,101574.47
2022-11-14T10:02:30.245Z,101587.88
2022-11-14T10:05:10.505Z,101578.19
2022-11-14T10:07:50.006Z,101580.63
2022-11-14T10:10:39.060Z,101576.09
2022-11-14T10:13:19.414Z,101567.47
2022-11-14T10:15:51.967Z,101566.94
2022-11-14T10:18:37.671Z,101564.31
2022-11-14T10:21:18.970Z,101562.16
2022-11-14T10:24:00.837Z,101558.69
2022-11-14T10:26:31.289Z,101556.84
2022-11-14T10:29:23.534Z,101561.19
2022-11-14T10:32:00.349Z,101557.69
2022-11-14T10:34:36.334Z,101544.53
2022-11-14T10:37:15.709Z,101552.31
2022-11-14T10:39:49.912Z,101548.25
2022-11-14T10:42:24.806Z,101551.47
2022-11-14T10:44:57.212Z,101543.44
2022-11-14T10:47:30.819Z,101543.13
2022-11-14T10:50:06.387Z,101541.34
2022-11-14T10:52:40.779Z,101542.44
2022-11-14T10:55:15.559Z,101546.69
2022-11-14T10:57:44.650Z,101542.22
2022-11-14T11:00:14.642Z,101548.06
2022-11-14T11:02:52.065Z,101545.16
2022-11-14T11:05:24.279Z,101542.50
2022-11-14T11:08:42.139Z,101548.38
2022-11-14T11:11:17.960Z,101544.09
2022-11-14T11:13:55.032Z,101544.03
2022-11-14T11:16:24.870Z,101535.72
2022-11-14T11:18:53.435Z,101540.31
2022-11-14T11:21:24.543Z,101536.81
2022-11-14T11:23:54.780Z,101545.16
2022-11-14T11:26:25.324Z,101534.19
2022-11-14T11:29:06.090Z,101537.09
2022-11-14T11:31:54.424Z,101539.50
2022-11-14T11:34:27.360Z,101534.69
2022-11-14T11:37:00.162Z,101530.69
2022-11-14T11:39:31.251Z,101539.56
2022-11-14T11:42:10.601Z,101533.38
2022-11-14T11:44:45.494Z,101529.41
2022-11-14T11:47:18.164Z,101532.56
2022-11-14T11:49:53.310Z,101531.75
2022-11-14T11:52:33.236Z,101530.09
2022-11-14T11:55:06.531Z,101528.59
2022-11-14T11:57:40.347Z,101526.72
2022-11-14T12:00:16.099Z,101528.31
2022-11-14T12:02:49.978Z,101524.06
2022-11-14T12:05:19.837Z,101522.97
2022-11-14T12:07:56.531Z,101528.03
2022-11-14T12:10:27.904Z,101524.53
2022-11-14T12:13:19.421Z,101525.34
2022-11-14T12:16:00.139Z,101528.03
2022-11-14T12:18:43.792Z,101523.22
2022-11-14T12:21:14.662Z,101511.50
2022-11-14T12:24:18.138Z,101527.53
2022-11-14T12:27:00.603Z,101512.53
2022-11-14T12:29:55.193Z,101513.06
2022-11-14T12:32:32.037Z,101514.69
2022-11-14T12:35:01.404Z,101514.16
2022-11-14T12:37:34.634Z,101517.09
2022-11-14T12:40:06.798Z,101522.47
2022-11-14T12:42:37.018Z,101524.34
2022-11-14T12:45:05.606Z,101523.25
2022-11-14T12:47:33.714Z,101519.78
2022-11-14T12:50:06.548Z,101522.22
2022-11-14T12:52:52.941Z,101517.91
2022-11-14T12:55:56.142Z,101529.41
2022-11-14T12:58:51.653Z,101516.59
2022-11-14T13:01:38.905Z,101518.44
2022-11-14T13:04:37.999Z,101522.75
2022-11-14T13:07:27.598Z,101518.72
2022-11-14T13:10:13.127Z,101516.59
2022-11-14T13:13:00.071Z,101515.78
2022-11-14T13:15:49.887Z,101513.91
2022-11-14T13:18:41.302Z,101513.66
2022-11-14T13:21:43.742Z,101508.03
2022-11-14T13:24:16.318Z,101510.41
2022-11-14T13:26:54.319Z,101497.34
2022-11-14T13:30:00.002Z,101497.59
2022-11-14T13:33:07.782Z,101495.22
2022-11-14T13:36:02.121Z,101501.59
2022-11-14T13:39:11.972Z,101497.59
2022-11-14T13:42:02.654Z,101501.28
2022-11-14T13:44:55.680Z,101495.94
2022-11-14T13:47:46.565Z,101498.31
2022-11-14T13:50:18.339Z,101503.13
2022-11-14T13:52:49.346Z,101499.16
2022-11-14T13:55:23.040Z,101498.88
2022-11-14T13:58:04.314Z,101503.69
2022-11-14T14:00:54.041Z,101496.22
2022-11-14T14:03:34.566Z,101494.34
2022-11-14T14:06:14.197Z,101492.44
2022-11-14T14:09:10.335Z,101503.13
2022-11-14T14:11:52.179Z,101496.72
2022-11-14T14:14:38.041Z,101492.44
2022-11-14T14:17:13.075Z,101494.06
2022-11-14T14:19:56.642Z,101483.66
2022-11-14T14:22:34.266Z,101486.31
2022-11-14T14:25:15.239Z,101481.47
2022-11-14T14:27:59.076Z,101485.75
2022-11-14T14:30:27.444Z,101483.06
2022-11-14T14:33:15.303Z,101479.63
2022-11-14T14:35:52.256Z,101482.50
2022-11-14T14:38:25.216Z,101480.38
2022-11-14T14:40:56.826Z,101485.44
2022-11-14T14:43:30.514Z,101478.75
2022-11-14T14:45:59.161Z,101478.72
2022-11-14T14:48:30.357Z,101476.09
2022-11-14T14:51:00.473Z,101473.69
2022-11-14T14:53:31.103Z,101472.63
2022-11-14T14:56:02.881Z,101472.31
2022-11-14T14:58:33.616Z,101473.94
2022-11-14T15:01:05.174Z,101482.47
2022-11-14T15:03:37.464Z,101468.53
2022-11-14T15:06:07.766Z,101478.97
2022-11-14T15:08:39.814Z,101477.66
2022-11-14T15:11:09.766Z,101473.13
2022-11-14T15:13:39.415Z,101475.25
2022-11-14T15:16:09.623Z,101475.22
2022-11-14T15:18:38.569Z,101472.81
2022-11-14T15:21:12.058Z,101479.47
2022-11-14T15:23:41.122Z,101476.25
2022-11-14T15:26:17.177Z,101470.94
2022-11-14T15:28:45.579Z,101483.00
2022-11-14T15:31:21.878Z,101477.94
2022-11-14T15:34:03.704Z,101482.94
2022-11-14T15:36:31.875Z,101478.16
2022-11-14T15:39:02.416Z,101474.41
2022-11-14T15:41:32.877Z,101480.28
2022-11-14T15:44:05.327Z,101484.53
2022-11-14T15:46:43.011Z,101483.19
2022-11-14T15:49:20.062Z,101480.19
2022-11-14T15:51:50.539Z,101484.78
2022-11-14T15:54:28.399Z,101488.50
2022-11-14T15:56:59.624Z,101482.91
2022-11-14T15:59:29.114Z,101491.38
2022-11-14T16:02:00.607Z,101483.94
2022-11-14T16:04:32.183Z,101494.31
2022-11-14T16:07:00.698Z,101480.94
2022-11-14T16:09:28.802Z,101485.41
2022-11-14T16:11:58.437Z,101479.06
2022-11-14T16:14:26.700Z,101484.44
2022-11-14T16:16:54.818Z,101486.38
2022-11-14T16:19:23.117Z,101489.75
2022-11-14T16:21:51.468Z,101492.72
2022-11-14T16:24:21.518Z,101493.78
2022-11-14T16:26:50.477Z,101490.34
2022-11-14T16:29:19.979Z,101491.38
2022-11-14T16:31:48.641Z,101488.88
2022-11-14T16:34:19.879Z,101491.75
2022-11-14T16:36:48.766Z,101493.13
2022-11-14T16:39:17.109Z,101496.06
2022-11-14T16:41:45.201Z,101491.22
2022-11-14T16:44:17.748Z,101484.78
2022-11-14T16:46:47.648Z,101486.88
2022-11-14T16:49:16.888Z,101490.97
2022-11-14T16:51:48.556Z,101485.63
2022-11-14T16:54:17.952Z,101483.41
2022-11-14T16:56:46.273Z,101487.66
2022-11-14T16:59:14.877Z,101478.00
2022-11-14T17:01:43.825Z,101477.75
2022-11-14T17:04:13.439Z,101485.81
2022-11-14T17:06:41.563Z,101487.59
2022-11-14T17:09:09.743Z,101488.91
2022-11-14T17:11:37.976Z,101485.19
2022-11-14T17:14:06.191Z,101481.34
2022-11-14T17:16:34.367Z,101485.72
2022-11-14T17:19:03.673Z,101483.06
2022-11-14T17:21:33.262Z,101490.53
2022-11-14T17:24:02.698Z,101482.38
2022-11-14T17:26:31.458Z,101486.75
2022-11-14T17:28:59.596Z,101478.59
2022-11-14T17:31:27.693Z,101476.09
2022-11-14T17:33:57.618Z,101477.41
2022-11-14T17:36:27.421Z,101474.13
2022-11-14T17:38:57.562Z,101471.53
2022-11-14T17:41:25.870Z,101464.84
2022-11-14T17:43:56.676Z,101469.19
2022-11-14T17:46:24.811Z,101461.84
2022-11-14T17:48:53.041Z,101459.50
2022-11-14T17:51:21.144Z,101462.16
2022-11-14T17:53:49.383Z,101468.81
2022-11-14T17:56:21.560Z,101461.63
2022-11-14T17:58:51.257Z,101454.44
2022-11-14T18:01:21.551Z,101451.31
2022-11-14T18:03:50.259Z,101451.00
2022-11-14T18:06:20.429Z,101442.97
2022-11-14T18:08:49.520Z,101444.34
2022-11-14T18:11:20.455Z,101446.47
2022-11-14T18:13:48.626Z,101447.28
2022-11-14T18:16:19.259Z,101443.50
2022-11-14T18:18:47.541Z,101445.16
2022-11-14T18:21:18.338Z,101443.59
2022-11-14T18:23:51.982Z,101442.09
2022-11-14T18:26:27.127Z,101436.97
2022-11-14T18:28:56.862Z,101440.41
2022-11-14T18:31:25.635Z,101436.94
2022-11-14T18:33:53.796Z,101447.88
2022-11-14T18:36:22.237Z,101431.56
2022-11-14T18:38:50.494Z,101431.63
2022-11-14T18:41:22.288Z,101427.94
2022-11-14T18:43:50.488Z,101424.22
2022-11-14T18:46:20.658Z,101432.78
2022-11-14T18:48:50.870Z,101432.47
2022-11-14T18:51:21.473Z,101428.53
2022-11-14T18:53:51.080Z,101419.47
2022-11-14T18:56:22.382Z,101424.53
2022-11-14T18:58:54.345Z,101421.88
2022-11-14T19:01:26.279Z,101428.50
2022-11-14T19:03:57.946Z,101436.97
2022-11-14T19:06:26.248Z,101431.88
2022-11-14T19:08:57.880Z,101428.47
2022-11-14T19:11:45.028Z,101432.47
2022-11-14T19:14:13.274Z,101423.13
2022-11-14T19:16:41.384Z,101434.63
2022-11-14T19:19:10.254Z,101421.25
2022-11-14T19:21:38.592Z,101427.66
2022-11-14T19:24:07.472Z,101427.41
2022-11-14T19:26:37.435Z,101420.19
2022-11-14T19:29:09.466Z,101415.69
2022-11-14T19:31:37.877Z,101417.06
2022-11-14T19:34:06.351Z,101414.63
2022-11-14T19:39:23.386Z,101413.75
2022-11-14T19:41:52.837Z,101399.38
2022-11-14T19:44:20.965Z,101397.28
2022-11-14T19:46:49.060Z,101393.59
2022-11-14T19:49:17.348Z,101388.72
2022-11-14T19:51:45.606Z,101391.75
2022-11-14T19:54:13.886Z,101386.16
2022-11-14T19:56:42.015Z,101392.56
2022-11-14T19:59:15.521Z,101391.78
2022-11-14T20:01:45.147Z,101388.56
2022-11-14T20:04:14.144Z,101389.38
2022-11-14T20:06:43.271Z,101392.34
2022-11-14T20:09:12.214Z,101397.09
2022-11-14T20:11:40.575Z,101388.84
2022-11-14T20:14:08.763Z,101398.19
2022-11-14T20:16:38.519Z,101390.44
2022-11-14T20:19:06.975Z,101384.31
2022-11-14T20:21:36.200Z,101389.09
2022-11-14T20:24:04.588Z,101392.81
2022-11-14T20:26:32.731Z,101392.03
2022-11-14T20:29:00.900Z,101389.09
2022-11-14T20:31:31.026Z,101385.03
2022-11-14T20:34:01.170Z,101391.19
2022-11-14T20:36:38.956Z,101378.88
2022-11-14T20:39:17.467Z,101383.75
2022-11-14T20:41:45.567Z,101385.59
2022-11-14T20:44:13.695Z,101378.88
2022-11-14T20:46:42.093Z,101380.50
2022-11-14T20:49:11.878Z,101381.34
2022-11-14T20:51:40.078Z,101385.38
2022-11-14T20:54:10.273Z,101376.78
2022-11-14T20:56:38.488Z,101370.34
2022-11-14T20:59:07.351Z,101370.09
2022-11-14T21:01:40.469Z,101366.59
2022-11-14T21:04:12.896Z,101364.75
2022-11-14T21:06:41.459Z,101358.59
2022-11-14T21:09:10.950Z,101357.50
2022-11-14T21:11:39.078Z,101353.25
2022-11-14T21:14:09.103Z,101351.91
2022-11-14T21:16:39.589Z,101352.53
2022-11-14T21:19:08.591Z,101347.91
2022-11-14T21:21:39.261Z,101351.94
2022-11-14T21:24:09.108Z,101340.19
2022-11-14T21:26:39.989Z,101354.03
2022-11-14T21:29:11.205Z,101346.84
2022-11-14T21:31:41.178Z,101354.09
2022-11-14T21:34:12.406Z,101345.28
2022-11-14T21:36:45.431Z,101347.66
2022-11-14T21:39:15.702Z,101341.75
2022-11-14T21:41:45.019Z,101340.72
2022-11-14T21:44:16.535Z,101339.09
2022-11-14T21:46:48.814Z,101339.41
2022-11-14T21:49:18.112Z,101331.63
2022-11-14T21:51:48.500Z,101340.69
2022-11-14T21:54:16.765Z,101337.00
2022-11-14T21:56:44.821Z,101335.63
2022-11-14T21:59:15.973Z,101342.06
2022-11-14T22:02:04.026Z,101336.75
2022-11-14T22:04:32.829Z,101333.47
2022-11-14T22:07:03.583Z,101324.72
2022-11-14T22:09:32.468Z,101329.25
2022-11-14T22:12:01.130Z,101331.13
2022-11-14T22:14:29.575Z,101323.41
2022-11-14T22:16:58.848Z,101326.06
2022-11-14T22:19:26.991Z,101327.13
2022-11-14T22:21:55.419Z,101318.34
2022-11-14T22:24:25.041Z,101321.00
2022-11-14T22:26:53.113Z,101316.50
2022-11-14T22:29:21.243Z,101318.34
2022-11-14T22:31:53.004Z,101315.16
2022-11-14T22:34:21.260Z,101304.44
2022-11-14T22:36:49.362Z,101312.16
2022-11-14T22:39:17.464Z,101308.97
2022-11-14T22:41:47.067Z,101298.88
2022-11-14T22:44:15.178Z,101307.09
2022-11-14T22:46:43.244Z,101301.25
2022-11-14T22:49:11.411Z,101303.66
2022-11-14T22:51:39.473Z,101307.13
2022-11-14T22:54:07.640Z,101305.25
2022-11-14T22:56:36.039Z,101303.91
2022-11-14T22:59:05.742Z,101297.78
2022-11-14T23:01:34.621Z,101285.25
2022-11-14T23:04:04.956Z,101283.88
2022-11-14T23:06:35.569Z,101287.91
2022-11-14T23:09:05.188Z,101280.44
2022-11-14T23:11:34.323Z,101279.94
2022-11-14T23:14:02.944Z,101277.78
2022-11-14T23:16:34.986Z,101276.72
2022-11-14T23:19:05.358Z,101272.75
2022-11-14T23:21:36.626Z,101272.47
2022-11-14T23:24:06.710Z,101264.47
2022-11-14T23:26:34.898Z,101270.84
2022-11-14T23:29:03.150Z,101268.19
2022-11-14T23:31:32.629Z,101262.31
2022-11-14T23:34:00.672Z,101258.06
2022-11-14T23:36:28.730Z,101258.59
2022-11-14T23:38:57.039Z,101263.44
2022-11-14T23:41:26.861Z,101254.34
2022-11-14T23:43:55.109Z,101259.88
2022-11-14T23:46:23.231Z,101253.50
2022-11-14T23:48:53.481Z,101248.44
2022-11-14T23:51:21.648Z,101241.53
2022-11-14T23:53:49.740Z,101239.38
2022-11-14T23:56:17.967Z,101243.63
2022-11-14T23:58:46.171Z,101238.56
